D/T METAR WX W/DIR W/SPE G/SPE TEMP DEWP
15/01/19 21:20 EGHH 152120Z 24007KT 8000 FEW008 BKN030 08/07 Q1016 WSW (240°) 8.1mph 8°C 7°C
15/01/19 20:50 EGHH 152050Z 24007KT 6000 -DZ FEW009 BKN028 08/07 Q1016 -DZ WSW (240°) 8.1mph 8°C 7°C
15/01/19 20:20 EGHH 152020Z 23008KT 9999 FEW014 BKN027 09/07 Q1016 SW (230°) 9.2mph 9°C 7°C
15/01/19 19:50 EGHH 151950Z 22006KT 9999 BKN027 09/07 Q1016 SW (220°) 6.9mph 9°C 7°C
15/01/19 19:20 EGHH 151920Z 23006KT 9999 BKN028 08/06 Q1017 SW (230°) 6.9mph 8°C 6°C
15/01/19 18:50 EGHH 151850Z 24006KT 9999 FEW024 BKN030 08/06 Q1017 WSW (240°) 6.9mph 8°C 6°C
15/01/19 18:20 EGHH 151820Z 23006KT 9999 FEW024 BKN030 08/06 Q1017 SW (230°) 6.9mph 8°C 6°C
15/01/19 17:50 EGHH 151750Z 24009KT 9999 FEW014 BKN027 09/07 Q1017 WSW (240°) 10.4mph 9°C 7°C
15/01/19 17:20 EGHH 151720Z 24009KT 9999 FEW014 BKN025 09/06 Q1018 WSW (240°) 10.4mph 9°C 6°C
15/01/19 16:50 EGHH 151650Z 24007KT 9999 FEW021 BKN030 09/06 Q1018 WSW (240°) 8.1mph 9°C 6°C
15/01/19 16:20 EGHH 151620Z 24007KT 9999 SCT024 BKN027 09/06 Q1018 WSW (240°) 8.1mph 9°C 6°C
15/01/19 15:50 EGHH 151550Z 26009KT 9999 BKN024 OVC031 09/06 Q1018 W (260°) 10.4mph 9°C 6°C
15/01/19 15:20 EGHH 151520Z 25008KT 9999 BKN024 10/06 Q1019 WSW (250°) 9.2mph 10°C 6°C
15/01/19 14:50 EGHH 151450Z 25010KT 9999 BKN021 10/06 Q1019 WSW (250°) 11.5mph 10°C 6°C
15/01/19 14:20 EGHH 151420Z 27009KT 9999 FEW016 BKN021 10/06 Q1019 W (270°) 10.4mph 10°C 6°C
15/01/19 13:50 EGHH 151350Z 26011KT 9999 BKN020 10/06 Q1019 W (260°) 12.7mph 10°C 6°C
15/01/19 13:20 EGHH 151320Z 26010KT 9999 FEW018 BKN021 10/06 Q1020 W (260°) 11.5mph 10°C 6°C
15/01/19 12:50 EGHH 151250Z 25007KT 9999 FEW014 BKN019 10/06 Q1020 WSW (250°) 8.1mph 10°C 6°C
15/01/19 12:20 EGHH 151220Z 26010KT 9999 SCT014 BKN021 09/06 Q1020 W (260°) 11.5mph 9°C 6°C
15/01/19 11:50 EGHH 151150Z 26009KT 9999 SCT014 BKN021 09/07 Q1021 W (260°) 10.4mph 9°C 7°C
15/01/19 11:20 EGHH 151120Z 25007KT 9999 SCT013 BKN020 09/07 Q1021 WSW (250°) 8.1mph 9°C 7°C
15/01/19 10:50 EGHH 151050Z 24006KT 9999 FEW013 BKN021 09/07 Q1021 WSW (240°) 6.9mph 9°C 7°C
15/01/19 10:20 EGHH 151020Z 24007KT 9999 BKN022 09/07 Q1022 WSW (240°) 8.1mph 9°C 7°C
15/01/19 09:50 EGHH 150950Z 23008KT 9999 BKN023 09/06 Q1022 SW (230°) 9.2mph 9°C 6°C
15/01/19 09:20 EGHH 150920Z 22006KT 9999 BKN024 08/06 Q1022 SW (220°) 6.9mph 8°C 6°C
15/01/19 08:50 EGHH 150850Z 24006KT 9999 BKN021 08/05 Q1022 WSW (240°) 6.9mph 8°C 5°C
15/01/19 08:20 EGHH 150820Z 25006KT 9999 BKN024 08/05 Q1022 WSW (250°) 6.9mph 8°C 5°C
15/01/19 07:50 EGHH 150750Z 25006KT 9999 OVC023 08/05 Q1022 WSW (250°) 6.9mph 8°C 5°C
15/01/19 07:20 EGHH 150720Z 24007KT 9999 OVC024 08/05 Q1022 WSW (240°) 8.1mph 8°C 5°C
15/01/19 06:50 EGHH 150650Z 26009KT 9999 OVC024 08/05 Q1022 W (260°) 10.4mph 8°C 5°C
15/01/19 06:20 EGHH 150620Z 25006KT 9999 OVC024 08/05 Q1022 WSW (250°) 6.9mph 8°C 5°C
15/01/19 05:50 EGHH 150550Z 25006KT 9999 OVC022 07/04 Q1022 WSW (250°) 6.9mph 7°C 4°C
14/01/19 21:50 EGHH 142150Z 26004KT 9999 SCT041 04/02 Q1024 W (260°) 4.6mph 4°C 2°C
14/01/19 21:20 EGHH 142120Z 26004KT 9999 SCT041 04/02 Q1024 W (260°) 4.6mph 4°C 2°C
14/01/19 20:50 EGHH 142050Z 26004KT 9999 BKN041 05/02 Q1024 W (260°) 4.6mph 5°C 2°C
14/01/19 20:20 EGHH 142020Z 28006KT 9999 BKN041 06/03 Q1024 W (280°) 6.9mph 6°C 3°C
14/01/19 19:50 EGHH 141950Z 28006KT 9999 BKN041 06/03 Q1024 W (280°) 6.9mph 6°C 3°C
14/01/19 19:20 EGHH 141920Z 28005KT 9999 BKN039 07/03 Q1024 W (280°) 5.8mph 7°C 3°C
14/01/19 18:50 EGHH 141850Z 28005KT 9999 BKN039 07/03 Q1024 W (280°) 5.8mph 7°C 3°C
14/01/19 18:20 EGHH 141820Z 27006KT 9999 BKN038 07/03 Q1024 W (270°) 6.9mph 7°C 3°C
14/01/19 17:50 EGHH 141750Z 28004KT 9999 BKN041 07/03 Q1024 W (280°) 4.6mph 7°C 3°C
14/01/19 17:20 EGHH 141720Z 29005KT 260V340 9999 BKN039 08/02 Q1024 WNW (290°) 5.8mph 8°C 2°C
14/01/19 16:50 EGHH 141650Z 30005KT 280V360 9999 BKN038 08/02 Q1024 WNW (300°) 5.8mph 8°C 2°C
14/01/19 16:20 EGHH 141620Z 28005KT 260V340 9999 BKN038 08/01 Q1024 W (280°) 5.8mph 8°C 1°C
14/01/19 15:50 EGHH 141550Z 32007KT 270V360 9999 BKN039 09/01 Q1023 NW (320°) 8.1mph 9°C 1°C
14/01/19 15:20 EGHH 141520Z 32008KT 270V360 9999 BKN040 09/01 Q1023 NW (320°) 9.2mph 9°C 1°C
14/01/19 14:50 EGHH 141450Z 32008KT 280V360 9999 FEW034 BKN040 09/01 Q1023 NW (320°) 9.2mph 9°C 1°C
14/01/19 14:20 EGHH 141420Z 32007KT 260V360 9999 FEW033 BKN039 09/01 Q1023 NW (320°) 8.1mph 9°C 1°C
14/01/19 13:50 EGHH 141350Z 33008KT 270V020 9999 BKN034 09/02 Q1023 NNW (330°) 9.2mph 9°C 2°C
14/01/19 12:50 EGHH 141250Z 32009KT 280V340 9999 BKN039 09/03 Q1023 NW (320°) 10.4mph 9°C 3°C
14/01/19 12:20 EGHH 141220Z 30010KT 9999 BKN041 09/03 Q1023 WNW (300°) 11.5mph 9°C 3°C
14/01/19 11:50 EGHH 141150Z 30010KT 270V350 9999 BKN044 10/03 Q1023 WNW (300°) 11.5mph 10°C 3°C
14/01/19 11:20 EGHH 141120Z 32009KT 270V360 9999 BKN042 09/02 Q1023 NW (320°) 10.4mph 9°C 2°C
14/01/19 10:20 EGHH 141020Z 32009KT 9999 BKN041 08/04 Q1022 NW (320°) 10.4mph 8°C 4°C
14/01/19 09:50 EGHH 140950Z 30008KT 9999 BKN042 08/04 Q1022 WNW (300°) 9.2mph 8°C 4°C
14/01/19 09:20 EGHH 140920Z 31008KT 280V350 9999 SCT044 07/03 Q1022 NW (310°) 9.2mph 7°C 3°C
14/01/19 08:50 EGHH 140850Z 31008KT 270V350 9999 FEW045 06/03 Q1022 NW (310°) 9.2mph 6°C 3°C
14/01/19 07:50 EGHH 140750Z 30009KT 280V350 CAVOK 06/02 Q1021 WNW (300°) 10.4mph 6°C 2°C
14/01/19 07:20 EGHH 140720Z 30008KT 270V340 CAVOK 05/02 Q1021 WNW (300°) 9.2mph 5°C 2°C
14/01/19 06:20 EGHH 140620Z 30008KT CAVOK 05/02 Q1020 WNW (300°) 9.2mph 5°C 2°C
14/01/19 05:50 EGHH 140550Z 30010KT CAVOK 06/02 Q1020 WNW (300°) 11.5mph 6°C 2°C
13/01/19 21:20 EGHH 132120Z 31013KT 9999 NSC 10/07 Q1015 NW (310°) 15.0mph 10°C 7°C
13/01/19 20:50 EGHH 132050Z 30014KT 9999 FEW020 BKN043 10/07 Q1015 WNW (300°) 16.1mph 10°C 7°C
13/01/19 20:20 EGHH 132020Z 30015KT 9999 FEW018 BKN042 11/08 Q1015 WNW (300°) 17.3mph 11°C 8°C
13/01/19 19:50 EGHH 131950Z 30015KT 9999 FEW017 BKN042 11/08 Q1015 WNW (300°) 17.3mph 11°C 8°C
13/01/19 19:20 EGHH 131920Z 29016KT 9999 FEW018 BKN042 11/08 Q1014 WNW (290°) 18.4mph 11°C 8°C
13/01/19 18:50 EGHH 131850Z 30013G23KT 9999 FEW014 BKN018 11/08 Q1014 WNW (300°) 15.0mph 26.5mph 11°C 8°C
13/01/19 18:20 EGHH 131820Z 30011KT 9999 -DZ FEW014 BKN017 11/08 Q1014 -DZ WNW (300°) 12.7mph 11°C 8°C
13/01/19 17:50 EGHH 131750Z 30015KT 9999 -DZ BKN013 SCT018 11/08 Q1014 -DZ WNW (300°) 17.3mph 11°C 8°C
13/01/19 17:20 EGHH 131720Z 30015KT 8000 -DZ BKN012 10/09 Q1014 -DZ WNW (300°) 17.3mph 10°C 9°C
13/01/19 16:50 EGHH 131650Z 30015GP99KT 4500 -DZ BR BKN011 SCT018 10/09 Q1014 -DZ BR N (0°) 10°C 9°C
13/01/19 15:50 EGHH 131550Z 30016G26KT 270V360 9999 6000NW BKN018 11/08 Q1014 WNW (300°) 18.4mph 29.9mph 11°C 8°C
13/01/19 15:20 EGHH 131520Z 30019G29KT 270V340 9999 BKN019 11/07 Q1014 WNW (300°) 21.9mph 33.4mph 11°C 7°C
13/01/19 14:50 EGHH 131450Z 31016G29KT 270V340 9999 BKN020 11/08 Q1014 NW (310°) 18.4mph 33.4mph 11°C 8°C
13/01/19 14:20 EGHH 131420Z 31016G27KT 9999 BKN021 12/07 Q1015 NW (310°) 18.4mph 31.1mph 12°C 7°C
13/01/19 13:50 EGHH 131350Z 28013KT 9999 FEW018 SCT021 12/08 Q1014 W (280°) 15.0mph 12°C 8°C
13/01/19 13:20 EGHH 131320Z 29009KT 9999 FEW018 SCT021 12/07 Q1015 WNW (290°) 10.4mph 12°C 7°C
13/01/19 12:50 EGHH 131250Z 29013KT 9999 FEW018 SCT021 12/07 Q1016 WNW (290°) 15.0mph 12°C 7°C
13/01/19 12:20 EGHH 131220Z 29015KT 9999 FEW022 12/07 Q1016 WNW (290°) 17.3mph 12°C 7°C
13/01/19 11:20 EGHH 131120Z 30017KT 9999 FEW022 11/07 Q1017 WNW (300°) 19.6mph 11°C 7°C
13/01/19 10:50 EGHH 131050Z 30012KT 260V340 9999 FEW018 11/07 Q1017 WNW (300°) 13.8mph 11°C 7°C
13/01/19 10:20 EGHH 131020Z 29013KT 9999 FEW018 10/07 Q1017 WNW (290°) 15.0mph 10°C 7°C
13/01/19 09:50 EGHH 130950Z 29011KT 240V320 9999 FEW018 10/07 Q1018 WNW (290°) 12.7mph 10°C 7°C
13/01/19 09:20 EGHH 130920Z 28013KT 9999 FEW016 10/07 Q1018 W (280°) 15.0mph 10°C 7°C
13/01/19 08:50 EGHH 130850Z 30009KT 9999 FEW016 10/07 Q1018 WNW (300°) 10.4mph 10°C 7°C
13/01/19 08:20 EGHH 130820Z 30011KT 250V340 9999 FEW016 10/07 Q1018 WNW (300°) 12.7mph 10°C 7°C
13/01/19 07:50 EGHH 130750Z 29013KT 260V330 9999 FEW015 10/07 Q1017 WNW (290°) 15.0mph 10°C 7°C
13/01/19 07:20 EGHH 130720Z 29012KT 9999 FEW014 10/08 Q1018 WNW (290°) 13.8mph 10°C 8°C
13/01/19 06:50 EGHH 130650Z 30013KT 9999 FEW014 10/08 Q1018 WNW (300°) 15.0mph 10°C 8°C
13/01/19 06:20 EGHH 130620Z 31016KT 9999 FEW013 10/08 Q1018 NW (310°) 18.4mph 10°C 8°C
12/01/19 20:20 EGHH 122020Z 29014KT 9999 BKN017 10/07 Q1022 WNW (290°) 16.1mph 10°C 7°C
12/01/19 19:20 EGHH 121920Z 29017G27KT 9999 SCT018 09/06 Q1022 WNW (290°) 19.6mph 31.1mph 9°C 6°C
12/01/19 18:50 EGHH 121850Z 29015KT 9999 FEW040 09/06 Q1022 WNW (290°) 17.3mph 9°C 6°C
12/01/19 18:20 EGHH 121820Z 29015KT 9999 FEW020 09/05 Q1022 WNW (290°) 17.3mph 9°C 5°C
12/01/19 17:50 EGHH 121750Z 29015KT 9999 FEW040 09/06 Q1023 WNW (290°) 17.3mph 9°C 6°C
12/01/19 17:20 EGHH 121720Z 30014KT 9999 FEW034 09/05 Q1023 WNW (300°) 16.1mph 9°C 5°C
12/01/19 16:50 EGHH 121650Z 30012KT 9999 FEW034 09/06 Q1023 WNW (300°) 13.8mph 9°C 6°C
12/01/19 16:20 EGHH 121620Z 30011KT 9999 FEW022 09/06 Q1023 WNW (300°) 12.7mph 9°C 6°C
12/01/19 15:50 EGHH 121550Z 30012KT 260V330 9999 FEW021 09/06 Q1023 WNW (300°) 13.8mph 9°C 6°C
12/01/19 15:20 EGHH 121520Z 30014KT 9999 SCT024 10/06 Q1023 WNW (300°) 16.1mph 10°C 6°C
12/01/19 14:50 EGHH 121450Z 30015KT 9999 SCT021 10/06 Q1023 WNW (300°) 17.3mph 10°C 6°C
12/01/19 14:20 EGHH 121420Z 30015KT 9999 BKN020 10/06 Q1023 WNW (300°) 17.3mph 10°C 6°C
12/01/19 13:50 EGHH 121350Z 31014KT 270V350 9999 BKN021 10/07 Q1023 NW (310°) 16.1mph 10°C 7°C
12/01/19 13:20 EGHH 121320Z 30016KT 9999 BKN021 11/07 Q1023 WNW (300°) 18.4mph 11°C 7°C
12/01/19 12:50 EGHH 121250Z 28011KT 9999 SCT016 BKN022 11/08 Q1024 W (280°) 12.7mph 11°C 8°C
12/01/19 12:20 EGHH 121220Z 28010KT 9999 FEW009 BKN012 10/08 Q1024 W (280°) 11.5mph 10°C 8°C
12/01/19 11:50 EGHH 121150Z 27011KT 230V300 9999 FEW009 BKN011 10/08 Q1024 W (270°) 12.7mph 10°C 8°C
12/01/19 11:20 EGHH 121120Z 27011KT 9999 VCSH FEW009 SCT013 10/08 Q1025 VCSH W (270°) 12.7mph 10°C 8°C
12/01/19 10:50 EGHH 121050Z 27008KT 9999 FEW009 SCT026 09/07 Q1025 W (270°) 9.2mph 9°C 7°C
12/01/19 10:20 EGHH 121020Z 27009KT 9999 FEW015 SCT017 09/07 Q1026 W (270°) 10.4mph 9°C 7°C
12/01/19 09:50 EGHH 120950Z 26008KT 9999 FEW015 BKN017 09/07 Q1026 W (260°) 9.2mph 9°C 7°C
12/01/19 09:20 EGHH 120920Z 26009KT 9999 FEW015 BKN018 09/07 Q1026 W (260°) 10.4mph 9°C 7°C
12/01/19 08:50 EGHH 120850Z 26010KT 9999 FEW015 BKN020 09/07 Q1026 W (260°) 11.5mph 9°C 7°C
12/01/19 08:20 EGHH 120820Z 27010KT 9999 SCT015 BKN021 08/07 Q1026 W (270°) 11.5mph 8°C 7°C
12/01/19 07:50 EGHH 120750Z 27008KT 9999 SCT014 BKN016 08/07 Q1026 W (270°) 9.2mph 8°C 7°C
12/01/19 07:20 EGHH 120720Z 27010KT 9999 BKN014 BKN022 09/07 Q1026 W (270°) 11.5mph 9°C 7°C
12/01/19 06:50 EGHH 120650Z 27009KT 9999 -RA OVC017 09/07 Q1026 -RA W (270°) 10.4mph 9°C 7°C
12/01/19 06:20 EGHH 120620Z 27011KT 9999 OVC020 09/07 Q1027 W (270°) 12.7mph 9°C 7°C
11/01/19 21:20 EGHH 112120Z 28005KT 9999 OVC032 07/05 Q1031 W (280°) 5.8mph 7°C 5°C
11/01/19 20:50 EGHH 112050Z 28006KT 9999 OVC030 07/05 Q1032 W (280°) 6.9mph 7°C 5°C
11/01/19 20:20 EGHH 112020Z 28005KT 9999 OVC030 06/05 Q1031 W (280°) 5.8mph 6°C 5°C
11/01/19 19:50 EGHH 111950Z 28005KT 9999 BKN030 06/04 Q1032 W (280°) 5.8mph 6°C 4°C
11/01/19 19:20 EGHH 111920Z 30005KT 9999 BKN031 07/04 Q1032 WNW (300°) 5.8mph 7°C 4°C
11/01/19 18:50 EGHH 111850Z 32005KT 9999 BKN031 05/04 Q1032 NW (320°) 5.8mph 5°C 4°C
11/01/19 18:20 EGHH 111820Z 33004KT 280V360 CAVOK 05/03 Q1032 NNW (330°) 4.6mph 5°C 3°C
11/01/19 17:50 EGHH 111750Z 32005KT CAVOK 04/02 Q1032 NW (320°) 5.8mph 4°C 2°C
11/01/19 17:20 EGHH 111720Z 33005KT 9999 FEW025 05/03 Q1031 NNW (330°) 5.8mph 5°C 3°C
11/01/19 16:50 EGHH 111650Z 32004KT 9999 FEW025 06/04 Q1031 NW (320°) 4.6mph 6°C 4°C
11/01/19 16:20 EGHH 111620Z VRB01KT 9999 FEW025 06/03 Q1031 N (0°) 1.2mph 6°C 3°C
11/01/19 15:20 EGHH 111520Z 35007KT 320V030 9999 FEW048 09/04 Q1031 N (350°) 8.1mph 9°C 4°C
11/01/19 14:50 EGHH 111450Z 35010KT 310V040 9999 FEW048 09/05 Q1031 N (350°) 11.5mph 9°C 5°C
11/01/19 13:50 EGHH 111350Z 35008KT 320V020 9999 FEW048 09/04 Q1031 N (350°) 9.2mph 9°C 4°C
11/01/19 13:20 EGHH 111320Z 36010KT 320V020 9999 FEW048 09/05 Q1031 N (360°) 11.5mph 9°C 5°C
11/01/19 12:50 EGHH 111250Z 35009KT 290V040 9999 FEW046 09/04 Q1031 N (350°) 10.4mph 9°C 4°C
11/01/19 12:20 EGHH 111220Z 35009KT 290V040 9999 FEW046 09/05 Q1031 N (350°) 10.4mph 9°C 5°C
11/01/19 11:20 EGHH 111120Z 34007KT 310V020 9999 FEW047 08/05 Q1031 NNW (340°) 8.1mph 8°C 5°C
11/01/19 10:50 EGHH 111050Z 36008KT 320V040 9999 FEW047 08/05 Q1031 N (360°) 9.2mph 8°C 5°C
11/01/19 10:20 EGHH 111020Z 36008KT 300V060 9999 SCT045 08/04 Q1031 N (360°) 9.2mph 8°C 4°C
11/01/19 09:50 EGHH 110950Z 36007KT 310V050 9999 SCT045 07/04 Q1031 N (360°) 8.1mph 7°C 4°C
11/01/19 09:20 EGHH 110920Z 36008KT 330V030 9999 FEW048 07/04 Q1031 N (360°) 9.2mph 7°C 4°C
11/01/19 08:50 EGHH 110850Z 36007KT 320V030 9999 FEW048 07/04 Q1031 N (360°) 8.1mph 7°C 4°C
11/01/19 08:20 EGHH 110820Z VRB04KT 9999 FEW048 06/03 Q1030 N (0°) 4.6mph 6°C 3°C
11/01/19 07:50 EGHH 110750Z 36006KT 270V020 9999 FEW045 07/04 Q1030 N (360°) 6.9mph 7°C 4°C
11/01/19 06:50 EGHH 110650Z 34005KT 300V010 9999 FEW045 07/04 Q1030 NNW (340°) 5.8mph 7°C 4°C